Cherry, IL (61317)

3:47 AM CDT en Junio 24, 2018 (GMT -0500)
Meisel HPA10 | | Change Station
Aviso en curso: Flood Warning

Alt 666 ft 41.45 °N, 89.15 °W | Updated 17 minutes ago

Despejado
Despejado
61 ° F
Sensación térmica 61 ° F
N
0
Viento Variable Viento desde Este
Gusts 1.0 mph

Hoy
Alta -- | Baja -- ° F
--% Posibilidad de precipitaciones
Ayer
Alta -- | Baja -- ° F
Precip. -- pul
Presión 29.85 pul
Visibilidad 7.0 Millas
Nubes Despejado
Punto de rocío 60 ° F
Humedad 98%
Precipitaciones 0.00 pul
Espesor de la nieve No disponible.
5:24 AM 8:34 PM
Gibosa creciente, 87% visible
METAR KVYS 240835Z AUTO 28003KT 7SM CLR 19/18 A2985 RMK AO2 T01850178
Presión 29.85 pul
Visibilidad 7.0 Millas
Nubes Despejado
Punto de rocío 60 ° F
Humedad 98%
Precipitaciones 0.00 pul
Espesor de la nieve No disponible.
5:24 AM 8:34 PM
Gibosa creciente, 87% visible
METAR KVYS 240835Z AUTO 28003KT 7SM CLR 19/18 A2985 RMK AO2 T01850178

Get Your Daily Forecast Email!

Thanks for signing up!

Be on the lookout for a verification email in your inbox.

You'll start receiving severe weather alerts in your inbox..

×

10-Day Weather Forecast

Almanac

Astronomía

Jun. 24, 2018 Salida Puesta
Hora real
Crepúsculo civil
Crepúsculo náutico
Crepúsculo astronómico
Luna
Horas de luz
Horas de luz
Tomorrow will be .
, % of the Moon is Illuminated

Extremos de hoy

Máximos del estado Bajos del estado

Community

WunderPhotos

Category 6

Welcome to Category 6. This is the collective home for Weather Underground's featured writeups by Dr. Jeff Masters (right), Bob Henson (left), Chris Burt, and other regular contributors.

Nearby

Calidad del aire

  Calidad del aire Índice AQ Contaminante
Not available.

Grosos de nieve

Estación Profundido Altura

Actividad de terremotos

Ciudad Distance Mag. Tiempo y dato
Magnitud mínima muestra es 2,5.

Temperaturas de aguas costeras

Lugar Temperatura

Stations

Estaciones meteorológicas cercanas

Ubicación de la estación Temp. Vientos helados Punto de rocío Humedad Viento Precip. Alt Actualizado Tipo
                   

Watches & Warnings

Flood Warning
Issued: 8:22 PM CDT Jun. 23, 2018 – National Weather Service

The Flood Warning continues for
the Illinois River at La Salle.
* Until Wednesday evening.
* At 745 PM Saturday the stage was 24.5 feet.
* Flood stage is 20.0 feet.
* Minor flooding is occurring and minor flooding is forecast.
* Forecast... the river will continue to fall to below flood stage by
Wednesday afternoon.


Lat... Lon 4128 8896 4126 8930 4135 8929 4137 8896



Rc